sensor_id;sensor_type;location;lat;lon;timestamp;temperature;humidity
49441;DHT22;35317;51.978;6.296;2022-07-06T00:04:08;13.70;83.50
49441;DHT22;35317;51.978;6.296;2022-07-06T00:09:09;13.60;83.90
49441;DHT22;35317;51.978;6.296;2022-07-06T00:14:10;13.60;84.30
49441;DHT22;35317;51.978;6.296;2022-07-06T00:19:10;13.50;84.70
49441;DHT22;35317;51.978;6.296;2022-07-06T00:24:11;13.40;85.10
49441;DHT22;35317;51.978;6.296;2022-07-06T00:29:12;13.40;85.70
49441;DHT22;35317;51.978;6.296;2022-07-06T00:34:13;13.40;85.70
49441;DHT22;35317;51.978;6.296;2022-07-06T00:39:14;13.50;86.00
49441;DHT22;35317;51.978;6.296;2022-07-06T00:44:15;13.50;86.10
49441;DHT22;35317;51.978;6.296;2022-07-06T00:49:15;13.60;86.20
49441;DHT22;35317;51.978;6.296;2022-07-06T00:54:36;13.60;86.20
49441;DHT22;35317;51.978;6.296;2022-07-06T00:59:37;13.60;86.30
49441;DHT22;35317;51.978;6.296;2022-07-06T01:04:38;13.70;86.40
49441;DHT22;35317;51.978;6.296;2022-07-06T01:09:39;13.80;86.30
49441;DHT22;35317;51.978;6.296;2022-07-06T01:14:40;13.80;86.20
49441;DHT22;35317;51.978;6.296;2022-07-06T01:19:41;13.90;86.20
49441;DHT22;35317;51.978;6.296;2022-07-06T01:24:41;14.00;86.20
49441;DHT22;35317;51.978;6.296;2022-07-06T01:29:42;14.00;86.30
49441;DHT22;35317;51.978;6.296;2022-07-06T01:34:43;14.00;86.40
49441;DHT22;35317;51.978;6.296;2022-07-06T01:39:44;14.00;86.40
49441;DHT22;35317;51.978;6.296;2022-07-06T01:44:44;14.00;86.60
49441;DHT22;35317;51.978;6.296;2022-07-06T01:49:45;13.90;86.70
49441;DHT22;35317;51.978;6.296;2022-07-06T01:54:46;13.90;86.90
49441;DHT22;35317;51.978;6.296;2022-07-06T01:59:47;13.90;87.10
49441;DHT22;35317;51.978;6.296;2022-07-06T02:04:47;13.90;87.40
49441;DHT22;35317;51.978;6.296;2022-07-06T02:09:48;13.80;87.50
49441;DHT22;35317;51.978;6.296;2022-07-06T02:14:49;13.70;87.80
49441;DHT22;35317;51.978;6.296;2022-07-06T02:19:50;13.70;88.10
49441;DHT22;35317;51.978;6.296;2022-07-06T02:24:50;13.60;88.30
49441;DHT22;35317;51.978;6.296;2022-07-06T02:29:51;13.60;88.60
49441;DHT22;35317;51.978;6.296;2022-07-06T02:34:52;13.50;88.80
49441;DHT22;35317;51.978;6.296;2022-07-06T02:39:53;13.60;89.00
49441;DHT22;35317;51.978;6.296;2022-07-06T02:44:54;13.60;89.30
49441;DHT22;35317;51.978;6.296;2022-07-06T02:49:54;13.50;89.40
49441;DHT22;35317;51.978;6.296;2022-07-06T02:54:56;13.60;89.60
49441;DHT22;35317;51.978;6.296;2022-07-06T02:59:56;13.50;89.90
49441;DHT22;35317;51.978;6.296;2022-07-06T03:04:57;13.50;90.00
49441;DHT22;35317;51.978;6.296;2022-07-06T03:09:58;13.50;90.10
49441;DHT22;35317;51.978;6.296;2022-07-06T03:14:59;13.40;90.10
49441;DHT22;35317;51.978;6.296;2022-07-06T03:19:59;13.40;90.20
49441;DHT22;35317;51.978;6.296;2022-07-06T03:25:00;13.30;90.40
49441;DHT22;35317;51.978;6.296;2022-07-06T03:30:01;13.20;90.50
49441;DHT22;35317;51.978;6.296;2022-07-06T03:35:03;13.10;90.70
49441;DHT22;35317;51.978;6.296;2022-07-06T03:40:04;13.00;90.90
49441;DHT22;35317;51.978;6.296;2022-07-06T03:45:06;12.90;91.10
49441;DHT22;35317;51.978;6.296;2022-07-06T03:50:08;12.90;91.20
49441;DHT22;35317;51.978;6.296;2022-07-06T03:55:09;12.80;91.40
49441;DHT22;35317;51.978;6.296;2022-07-06T04:00:11;12.80;91.50
49441;DHT22;35317;51.978;6.296;2022-07-06T04:05:12;12.90;91.60
49441;DHT22;35317;51.978;6.296;2022-07-06T04:10:14;12.90;91.70
49441;DHT22;35317;51.978;6.296;2022-07-06T04:15:16;13.10;91.80
49441;DHT22;35317;51.978;6.296;2022-07-06T04:20:17;13.20;91.80
49441;DHT22;35317;51.978;6.296;2022-07-06T04:25:18;13.40;91.70
49441;DHT22;35317;51.978;6.296;2022-07-06T04:30:19;13.50;91.60
49441;DHT22;35317;51.978;6.296;2022-07-06T04:35:19;13.70;91.50
49441;DHT22;35317;51.978;6.296;2022-07-06T04:40:20;13.80;91.30
49441;DHT22;35317;51.978;6.296;2022-07-06T04:45:21;13.90;91.20
49441;DHT22;35317;51.978;6.296;2022-07-06T04:50:22;14.00;91.10
49441;DHT22;35317;51.978;6.296;2022-07-06T04:55:23;14.00;91.00
49441;DHT22;35317;51.978;6.296;2022-07-06T05:00:24;14.10;91.00
49441;DHT22;35317;51.978;6.296;2022-07-06T05:05:26;14.10;91.00
49441;DHT22;35317;51.978;6.296;2022-07-06T05:10:27;14.20;90.90
49441;DHT22;35317;51.978;6.296;2022-07-06T05:15:28;14.40;90.90
49441;DHT22;35317;51.978;6.296;2022-07-06T05:20:30;14.50;90.80
49441;DHT22;35317;51.978;6.296;2022-07-06T05:25:31;14.60;90.70
49441;DHT22;35317;51.978;6.296;2022-07-06T05:30:33;14.80;90.50
49441;DHT22;35317;51.978;6.296;2022-07-06T05:35:33;14.90;90.30
49441;DHT22;35317;51.978;6.296;2022-07-06T05:40:34;15.00;90.20
49441;DHT22;35317;51.978;6.296;2022-07-06T05:45:37;15.10;89.90
49441;DHT22;35317;51.978;6.296;2022-07-06T05:50:38;15.30;89.40
49441;DHT22;35317;51.978;6.296;2022-07-06T05:55:39;15.40;89.00
49441;DHT22;35317;51.978;6.296;2022-07-06T06:00:39;15.50;88.70
49441;DHT22;35317;51.978;6.296;2022-07-06T06:05:40;15.70;88.40
49441;DHT22;35317;51.978;6.296;2022-07-06T06:10:41;15.80;87.90
49441;DHT22;35317;51.978;6.296;2022-07-06T06:15:42;15.90;87.40
49441;DHT22;35317;51.978;6.296;2022-07-06T06:20:43;16.20;86.90
49441;DHT22;35317;51.978;6.296;2022-07-06T06:25:44;16.40;86.30
49441;DHT22;35317;51.978;6.296;2022-07-06T06:30:44;16.50;86.10
49441;DHT22;35317;51.978;6.296;2022-07-06T06:35:52;16.70;84.80
49441;DHT22;35317;51.978;6.296;2022-07-06T06:40:54;17.00;84.00
49441;DHT22;35317;51.978;6.296;2022-07-06T06:45:54;17.30;83.50
49441;DHT22;35317;51.978;6.296;2022-07-06T06:50:55;17.40;82.90
49441;DHT22;35317;51.978;6.296;2022-07-06T06:55:56;17.60;81.90
49441;DHT22;35317;51.978;6.296;2022-07-06T07:00:57;17.80;81.20
49441;DHT22;35317;51.978;6.296;2022-07-06T07:05:57;17.80;80.50
49441;DHT22;35317;51.978;6.296;2022-07-06T07:10:58;17.80;80.20
49441;DHT22;35317;51.978;6.296;2022-07-06T07:15:59;17.80;79.90
49441;DHT22;35317;51.978;6.296;2022-07-06T07:21:00;17.80;79.70
49441;DHT22;35317;51.978;6.296;2022-07-06T07:26:00;17.90;79.40
49441;DHT22;35317;51.978;6.296;2022-07-06T07:31:01;17.90;78.50
49441;DHT22;35317;51.978;6.296;2022-07-06T07:36:02;18.10;77.80
49441;DHT22;35317;51.978;6.296;2022-07-06T07:41:03;18.30;76.50
49441;DHT22;35317;51.978;6.296;2022-07-06T07:46:04;18.40;74.00
49441;DHT22;35317;51.978;6.296;2022-07-06T07:51:04;18.40;74.00
49441;DHT22;35317;51.978;6.296;2022-07-06T07:56:05;18.50;73.00
49441;DHT22;35317;51.978;6.296;2022-07-06T08:01:06;18.60;71.90
49441;DHT22;35317;51.978;6.296;2022-07-06T08:06:07;18.90;70.80
49441;DHT22;35317;51.978;6.296;2022-07-06T08:11:08;19.20;70.00
49441;DHT22;35317;51.978;6.296;2022-07-06T08:16:08;19.20;68.70
49441;DHT22;35317;51.978;6.296;2022-07-06T08:21:10;19.00;68.10
49441;DHT22;35317;51.978;6.296;2022-07-06T08:26:11;18.90;68.00
49441;DHT22;35317;51.978;6.296;2022-07-06T08:31:12;19.00;67.50
49441;DHT22;35317;51.978;6.296;2022-07-06T08:36:13;19.40;66.10
49441;DHT22;35317;51.978;6.296;2022-07-06T08:41:17;19.50;63.90
49441;DHT22;35317;51.978;6.296;2022-07-06T08:46:22;19.80;63.80
49441;DHT22;35317;51.978;6.296;2022-07-06T08:51:24;20.40;62.50
49441;DHT22;35317;51.978;6.296;2022-07-06T08:56:25;20.70;61.20
49441;DHT22;35317;51.978;6.296;2022-07-06T09:01:28;20.50;61.20
49441;DHT22;35317;51.978;6.296;2022-07-06T09:06:30;20.70;60.70
49441;DHT22;35317;51.978;6.296;2022-07-06T09:11:31;20.80;59.50
49441;DHT22;35317;51.978;6.296;2022-07-06T09:16:32;21.10;58.50
49441;DHT22;35317;51.978;6.296;2022-07-06T09:21:32;21.10;57.30
49441;DHT22;35317;51.978;6.296;2022-07-06T09:26:36;21.30;56.10
49441;DHT22;35317;51.978;6.296;2022-07-06T09:31:37;21.70;55.30
49441;DHT22;35317;51.978;6.296;2022-07-06T09:36:40;21.90;55.50
49441;DHT22;35317;51.978;6.296;2022-07-06T09:41:43;22.20;54.10
49441;DHT22;35317;51.978;6.296;2022-07-06T09:46:46;22.50;53.40
49441;DHT22;35317;51.978;6.296;2022-07-06T09:51:49;22.50;52.30
49441;DHT22;35317;51.978;6.296;2022-07-06T09:56:51;22.30;52.20
49441;DHT22;35317;51.978;6.296;2022-07-06T10:01:57;22.20;52.00
49441;DHT22;35317;51.978;6.296;2022-07-06T10:06:59;22.50;51.00
49441;DHT22;35317;51.978;6.296;2022-07-06T10:12:02;22.80;49.00
49441;DHT22;35317;51.978;6.296;2022-07-06T10:17:04;22.90;49.50
49441;DHT22;35317;51.978;6.296;2022-07-06T10:22:08;22.90;49.00
49441;DHT22;35317;51.978;6.296;2022-07-06T10:27:10;22.90;49.00
49441;DHT22;35317;51.978;6.296;2022-07-06T10:32:22;22.80;49.30
49441;DHT22;35317;51.978;6.296;2022-07-06T10:37:28;22.90;48.70
49441;DHT22;35317;51.978;6.296;2022-07-06T10:42:41;22.90;47.70
49441;DHT22;35317;51.978;6.296;2022-07-06T10:47:46;22.90;48.60
49441;DHT22;35317;51.978;6.296;2022-07-06T10:52:59;22.90;48.80
49441;DHT22;35317;51.978;6.296;2022-07-06T10:58:01;22.50;48.80
49441;DHT22;35317;51.978;6.296;2022-07-06T11:03:31;22.40;49.60
49441;DHT22;35317;51.978;6.296;2022-07-06T11:08:57;22.50;49.60
49441;DHT22;35317;51.978;6.296;2022-07-06T11:19:13;23.00;49.20
49441;DHT22;35317;51.978;6.296;2022-07-06T11:24:16;23.30;48.20
49441;DHT22;35317;51.978;6.296;2022-07-06T11:29:23;23.30;48.00
49441;DHT22;35317;51.978;6.296;2022-07-06T11:34:26;23.40;47.90
49441;DHT22;35317;51.978;6.296;2022-07-06T11:39:39;23.70;47.90
49441;DHT22;35317;51.978;6.296;2022-07-06T11:44:41;23.70;47.60
49441;DHT22;35317;51.978;6.296;2022-07-06T11:49:43;23.70;47.40
49441;DHT22;35317;51.978;6.296;2022-07-06T11:54:46;23.60;47.20
49441;DHT22;35317;51.978;6.296;2022-07-06T11:59:47;23.70;47.30
49441;DHT22;35317;51.978;6.296;2022-07-06T12:04:51;23.90;46.40
49441;DHT22;35317;51.978;6.296;2022-07-06T12:09:52;24.00;46.80
49441;DHT22;35317;51.978;6.296;2022-07-06T12:14:53;24.00;46.80
49441;DHT22;35317;51.978;6.296;2022-07-06T12:19:54;24.10;46.50
49441;DHT22;35317;51.978;6.296;2022-07-06T12:24:55;24.50;46.20
49441;DHT22;35317;51.978;6.296;2022-07-06T12:30:08;24.60;45.90
49441;DHT22;35317;51.978;6.296;2022-07-06T12:35:10;25.00;45.40
49441;DHT22;35317;51.978;6.296;2022-07-06T12:40:12;25.10;45.10
49441;DHT22;35317;51.978;6.296;2022-07-06T12:45:13;25.40;44.00
49441;DHT22;35317;51.978;6.296;2022-07-06T12:50:14;25.60;43.70
49441;DHT22;35317;51.978;6.296;2022-07-06T12:55:15;25.70;43.70
49441;DHT22;35317;51.978;6.296;2022-07-06T13:00:16;25.60;43.20
49441;DHT22;35317;51.978;6.296;2022-07-06T13:05:18;25.60;43.60
49441;DHT22;35317;51.978;6.296;2022-07-06T13:10:20;25.30;43.40
49441;DHT22;35317;51.978;6.296;2022-07-06T13:15:21;24.90;43.70
49441;DHT22;35317;51.978;6.296;2022-07-06T13:20:21;24.60;44.00
49441;DHT22;35317;51.978;6.296;2022-07-06T13:25:22;24.50;44.20
49441;DHT22;35317;51.978;6.296;2022-07-06T13:30:23;24.60;44.70
49441;DHT22;35317;51.978;6.296;2022-07-06T13:35:24;25.10;44.40
49441;DHT22;35317;51.978;6.296;2022-07-06T13:40:24;25.60;44.90
49441;DHT22;35317;51.978;6.296;2022-07-06T13:45:25;25.80;43.60
49441;DHT22;35317;51.978;6.296;2022-07-06T13:50:26;25.60;44.20
49441;DHT22;35317;51.978;6.296;2022-07-06T13:55:28;25.50;44.10
49441;DHT22;35317;51.978;6.296;2022-07-06T14:00:30;25.60;44.20
49441;DHT22;35317;51.978;6.296;2022-07-06T14:05:30;25.80;43.80
49441;DHT22;35317;51.978;6.296;2022-07-06T14:10:31;25.60;43.90
49441;DHT22;35317;51.978;6.296;2022-07-06T14:15:32;25.50;44.10
49441;DHT22;35317;51.978;6.296;2022-07-06T14:20:34;25.60;44.60
49441;DHT22;35317;51.978;6.296;2022-07-06T14:25:35;25.80;44.10
49441;DHT22;35317;51.978;6.296;2022-07-06T14:30:37;25.80;44.00
49441;DHT22;35317;51.978;6.296;2022-07-06T14:35:49;25.70;44.30
49441;DHT22;35317;51.978;6.296;2022-07-06T14:40:51;25.60;44.30
49441;DHT22;35317;51.978;6.296;2022-07-06T14:45:51;25.60;44.50
49441;DHT22;35317;51.978;6.296;2022-07-06T14:50:53;25.80;44.70
49441;DHT22;35317;51.978;6.296;2022-07-06T14:55:54;25.90;44.50
49441;DHT22;35317;51.978;6.296;2022-07-06T15:00:55;26.00;44.60
49441;DHT22;35317;51.978;6.296;2022-07-06T15:05:56;26.00;44.40
49441;DHT22;35317;51.978;6.296;2022-07-06T15:10:57;25.60;44.40
49441;DHT22;35317;51.978;6.296;2022-07-06T15:15:58;25.50;44.70
49441;DHT22;35317;51.978;6.296;2022-07-06T15:20:58;25.50;44.60
49441;DHT22;35317;51.978;6.296;2022-07-06T15:26:02;25.40;44.70
49441;DHT22;35317;51.978;6.296;2022-07-06T15:31:03;25.10;44.90
49441;DHT22;35317;51.978;6.296;2022-07-06T15:36:04;24.80;45.60
49441;DHT22;35317;51.978;6.296;2022-07-06T15:41:05;24.50;46.40
49441;DHT22;35317;51.978;6.296;2022-07-06T15:46:06;24.20;46.10
49441;DHT22;35317;51.978;6.296;2022-07-06T15:51:07;24.00;46.40
49441;DHT22;35317;51.978;6.296;2022-07-06T15:56:07;23.90;46.70
49441;DHT22;35317;51.978;6.296;2022-07-06T16:01:08;23.90;47.10
49441;DHT22;35317;51.978;6.296;2022-07-06T16:06:09;23.80;47.30
49441;DHT22;35317;51.978;6.296;2022-07-06T16:11:11;23.70;48.10
49441;DHT22;35317;51.978;6.296;2022-07-06T16:16:16;23.60;48.20
49441;DHT22;35317;51.978;6.296;2022-07-06T16:21:17;23.50;48.10
49441;DHT22;35317;51.978;6.296;2022-07-06T16:26:17;23.20;48.20
49441;DHT22;35317;51.978;6.296;2022-07-06T16:31:18;23.00;49.00
49441;DHT22;35317;51.978;6.296;2022-07-06T16:36:19;22.90;49.40
49441;DHT22;35317;51.978;6.296;2022-07-06T16:41:20;22.80;50.10
49441;DHT22;35317;51.978;6.296;2022-07-06T16:46:21;22.70;50.60
49441;DHT22;35317;51.978;6.296;2022-07-06T16:51:21;22.60;51.40
49441;DHT22;35317;51.978;6.296;2022-07-06T16:56:22;22.50;53.70
49441;DHT22;35317;51.978;6.296;2022-07-06T17:01:23;22.30;54.30
49441;DHT22;35317;51.978;6.296;2022-07-06T17:06:24;22.10;54.70
49441;DHT22;35317;51.978;6.296;2022-07-06T17:11:26;22.00;55.20
49441;DHT22;35317;51.978;6.296;2022-07-06T17:16:26;21.90;55.20
49441;DHT22;35317;51.978;6.296;2022-07-06T17:21:27;21.90;55.90
49441;DHT22;35317;51.978;6.296;2022-07-06T17:26:28;21.80;56.20
49441;DHT22;35317;51.978;6.296;2022-07-06T17:31:30;21.80;57.10
49441;DHT22;35317;51.978;6.296;2022-07-06T17:36:31;21.70;57.20
49441;DHT22;35317;51.978;6.296;2022-07-06T17:41:32;21.70;56.90
49441;DHT22;35317;51.978;6.296;2022-07-06T17:46:32;21.70;56.60
49441;DHT22;35317;51.978;6.296;2022-07-06T17:51:34;21.70;56.40
49441;DHT22;35317;51.978;6.296;2022-07-06T17:56:35;21.70;56.30
49441;DHT22;35317;51.978;6.296;2022-07-06T18:01:36;21.60;56.50
49441;DHT22;35317;51.978;6.296;2022-07-06T18:06:37;21.50;56.80
49441;DHT22;35317;51.978;6.296;2022-07-06T18:11:37;21.50;57.20
49441;DHT22;35317;51.978;6.296;2022-07-06T18:16:38;21.40;57.70
49441;DHT22;35317;51.978;6.296;2022-07-06T18:21:40;21.40;59.00
49441;DHT22;35317;51.978;6.296;2022-07-06T18:26:45;21.30;58.90
49441;DHT22;35317;51.978;6.296;2022-07-06T18:31:45;21.30;59.30
49441;DHT22;35317;51.978;6.296;2022-07-06T18:36:46;21.30;59.90
49441;DHT22;35317;51.978;6.296;2022-07-06T18:41:47;21.20;60.40
49441;DHT22;35317;51.978;6.296;2022-07-06T18:46:48;21.20;60.50
49441;DHT22;35317;51.978;6.296;2022-07-06T18:51:49;21.20;61.00
49441;DHT22;35317;51.978;6.296;2022-07-06T18:56:49;21.00;61.40
49441;DHT22;35317;51.978;6.296;2022-07-06T19:01:50;20.90;61.80
49441;DHT22;35317;51.978;6.296;2022-07-06T19:06:51;20.90;62.30
49441;DHT22;35317;51.978;6.296;2022-07-06T19:11:52;20.80;62.60
49441;DHT22;35317;51.978;6.296;2022-07-06T19:16:52;20.90;62.90
49441;DHT22;35317;51.978;6.296;2022-07-06T19:21:53;20.80;63.30
49441;DHT22;35317;51.978;6.296;2022-07-06T19:26:54;20.70;63.50
49441;DHT22;35317;51.978;6.296;2022-07-06T19:31:55;20.70;64.10
49441;DHT22;35317;51.978;6.296;2022-07-06T19:36:56;20.60;64.60
49441;DHT22;35317;51.978;6.296;2022-07-06T19:41:56;20.50;64.80
49441;DHT22;35317;51.978;6.296;2022-07-06T19:46:57;20.50;65.00
49441;DHT22;35317;51.978;6.296;2022-07-06T19:51:58;20.40;65.10
49441;DHT22;35317;51.978;6.296;2022-07-06T19:56:59;20.30;65.10
49441;DHT22;35317;51.978;6.296;2022-07-06T20:02:00;20.20;65.30
49441;DHT22;35317;51.978;6.296;2022-07-06T20:07:01;20.10;66.20
49441;DHT22;35317;51.978;6.296;2022-07-06T20:12:02;20.00;66.00
49441;DHT22;35317;51.978;6.296;2022-07-06T20:17:03;20.00;66.30
49441;DHT22;35317;51.978;6.296;2022-07-06T20:22:04;19.90;66.70
49441;DHT22;35317;51.978;6.296;2022-07-06T20:27:06;19.90;67.40
49441;DHT22;35317;51.978;6.296;2022-07-06T20:32:07;19.80;67.50
49441;DHT22;35317;51.978;6.296;2022-07-06T20:37:09;19.90;68.00
49441;DHT22;35317;51.978;6.296;2022-07-06T20:42:10;19.90;68.70
49441;DHT22;35317;51.978;6.296;2022-07-06T20:47:10;19.80;69.10
49441;DHT22;35317;51.978;6.296;2022-07-06T20:52:11;19.80;69.50
49441;DHT22;35317;51.978;6.296;2022-07-06T20:57:12;19.80;70.00
49441;DHT22;35317;51.978;6.296;2022-07-06T21:02:13;19.80;70.30
49441;DHT22;35317;51.978;6.296;2022-07-06T21:07:15;19.70;70.50
49441;DHT22;35317;51.978;6.296;2022-07-06T21:12:15;19.70;70.80
49441;DHT22;35317;51.978;6.296;2022-07-06T21:17:16;19.70;71.10
49441;DHT22;35317;51.978;6.296;2022-07-06T21:22:17;19.60;71.50
49441;DHT22;35317;51.978;6.296;2022-07-06T21:27:18;19.60;72.00
49441;DHT22;35317;51.978;6.296;2022-07-06T21:32:19;19.60;72.50
49441;DHT22;35317;51.978;6.296;2022-07-06T21:37:19;19.60;72.90
49441;DHT22;35317;51.978;6.296;2022-07-06T21:42:21;19.50;73.40
49441;DHT22;35317;51.978;6.296;2022-07-06T21:47:22;19.60;73.80
49441;DHT22;35317;51.978;6.296;2022-07-06T21:52:23;19.60;74.20
49441;DHT22;35317;51.978;6.296;2022-07-06T21:57:24;19.60;74.50
49441;DHT22;35317;51.978;6.296;2022-07-06T22:02:24;19.60;75.10
49441;DHT22;35317;51.978;6.296;2022-07-06T22:07:25;19.50;75.40
49441;DHT22;35317;51.978;6.296;2022-07-06T22:12:26;19.50;75.80
49441;DHT22;35317;51.978;6.296;2022-07-06T22:17:27;19.60;76.50
49441;DHT22;35317;51.978;6.296;2022-07-06T22:22:28;19.60;76.50
49441;DHT22;35317;51.978;6.296;2022-07-06T22:27:29;19.60;76.60
49441;DHT22;35317;51.978;6.296;2022-07-06T22:32:30;19.60;76.70
49441;DHT22;35317;51.978;6.296;2022-07-06T22:37:32;19.60;76.90
49441;DHT22;35317;51.978;6.296;2022-07-06T22:42:32;19.60;77.10
49441;DHT22;35317;51.978;6.296;2022-07-06T22:47:33;19.60;77.40
49441;DHT22;35317;51.978;6.296;2022-07-06T22:52:34;19.50;77.40
49441;DHT22;35317;51.978;6.296;2022-07-06T22:57:35;19.60;77.70
49441;DHT22;35317;51.978;6.296;2022-07-06T23:02:36;19.50;77.70
49441;DHT22;35317;51.978;6.296;2022-07-06T23:07:37;19.50;77.70
49441;DHT22;35317;51.978;6.296;2022-07-06T23:12:39;19.50;78.10
49441;DHT22;35317;51.978;6.296;2022-07-06T23:17:39;19.50;78.30
49441;DHT22;35317;51.978;6.296;2022-07-06T23:22:40;19.40;78.50
49441;DHT22;35317;51.978;6.296;2022-07-06T23:27:41;19.40;78.80
49441;DHT22;35317;51.978;6.296;2022-07-06T23:32:42;19.30;79.30
49441;DHT22;35317;51.978;6.296;2022-07-06T23:37:44;19.30;80.00
49441;DHT22;35317;51.978;6.296;2022-07-06T23:42:45;19.30;80.70
49441;DHT22;35317;51.978;6.296;2022-07-06T23:47:46;19.30;81.10
49441;DHT22;35317;51.978;6.296;2022-07-06T23:52:47;19.20;81.60
49441;DHT22;35317;51.978;6.296;2022-07-06T23:57:47;19.10;81.90
